Time;durP1;ratioP1;P1;durP2;ratioP2;P2;SDS_P1;SDS_P2;PMS_P1;PMS_P2;Temp;Humidity;BMP_temperature;BMP_pressure;BME280_temperature;BME280_humidity;BME280_pressure;Samples;Min_cycle;Max_cycle;Signal;HPM_P1;HPM_P2
2022/07/04 04:00:17;;;;;;;3.00;2.80;;;20.20;99.90;;;;;;6044864;23;21378;-66
2022/07/04 04:02:44;;;;;;;6.23;2.70;;;20.20;99.90;;;;;;4995269;28;20466;-66
2022/07/04 04:05:28;;;;;;;3.07;2.40;;;20.20;99.90;;;;;;4994991;28;20446;-65
2022/07/04 04:07:56;;;;;;;2.10;2.00;;;20.20;99.90;;;;;;4995477;28;20465;-66
2022/07/04 04:10:24;;;;;;;1.87;1.70;;;20.20;99.90;;;;;;4995905;28;20457;-67
2022/07/04 04:12:51;;;;;;;2.23;2.10;;;20.20;99.90;;;;;;4994934;28;20453;-66
2022/07/04 04:15:19;;;;;;;3.10;2.80;;;20.10;99.90;;;;;;4995046;28;20449;-66
2022/07/04 04:17:46;;;;;;;2.50;2.33;;;20.10;99.90;;;;;;4994469;28;20812;-66
2022/07/04 04:20:13;;;;;;;2.93;2.07;;;20.20;99.90;;;;;;4994882;28;20464;-66
2022/07/04 04:22:40;;;;;;;3.13;2.27;;;20.20;99.90;;;;;;4994774;28;20471;-66
2022/07/04 04:25:08;;;;;;;4.30;2.30;;;20.30;99.90;;;;;;4994733;28;20453;-67
2022/07/04 04:27:34;;;;;;;2.83;2.30;;;20.30;99.90;;;;;;4995479;28;20450;-66
2022/07/04 04:30:01;;;;;;;4.30;2.30;;;20.30;99.90;;;;;;4994661;28;20453;-66
2022/07/04 04:32:29;;;;;;;4.43;3.00;;;20.20;99.90;;;;;;4994269;28;20473;-66
2022/07/04 04:34:56;;;;;;;3.80;2.30;;;20.20;99.90;;;;;;4994698;28;20458;-65
2022/07/04 04:37:22;;;;;;;3.90;2.27;;;20.30;99.90;;;;;;4994717;28;20473;-66
2022/07/04 04:39:49;;;;;;;4.00;2.13;;;20.30;99.90;;;;;;4994782;28;20454;-66
2022/07/04 04:42:16;;;;;;;3.03;2.40;;;20.30;99.90;;;;;;4995250;28;20512;-67
2022/07/04 04:44:43;;;;;;;3.87;2.47;;;20.30;99.90;;;;;;4995775;28;20456;-66
2022/07/04 04:47:09;;;;;;;3.93;2.70;;;20.30;99.90;;;;;;4996073;28;20457;-66
2022/07/04 04:49:37;;;;;;;3.30;2.53;;;20.30;99.90;;;;;;4995398;28;20955;-67
2022/07/04 04:52:05;;;;;;;2.13;1.93;;;20.30;99.90;;;;;;4995778;28;20484;-66
2022/07/04 04:54:32;;;;;;;5.73;2.80;;;20.40;99.90;;;;;;4994795;28;20461;-66
2022/07/04 04:56:59;;;;;;;4.33;2.77;;;20.40;99.90;;;;;;4995305;28;20834;-67
2022/07/04 04:59:25;;;;;;;6.63;2.57;;;20.40;99.90;;;;;;4995517;28;20460;-66
2022/07/04 05:01:52;;;;;;;4.17;2.50;;;20.50;99.90;;;;;;4996348;28;20496;-67
2022/07/04 05:04:20;;;;;;;3.03;2.77;;;20.50;99.90;;;;;;4999129;28;20461;-66
2022/07/04 05:06:48;;;;;;;3.57;2.80;;;20.60;99.90;;;;;;4998975;28;20540;-67
2022/07/04 05:09:14;;;;;;;2.93;2.63;;;20.60;99.90;;;;;;5005591;28;20460;-66
2022/07/04 05:11:41;;;;;;;3.70;2.63;;;20.70;99.90;;;;;;5011077;28;20469;-66
2022/07/04 05:14:08;;;;;;;2.47;2.27;;;20.80;99.90;;;;;;5011279;28;20455;-67
2022/07/04 05:16:35;;;;;;;4.30;3.00;;;20.80;99.90;;;;;;5011039;28;20478;-66
2022/07/04 05:19:01;;;;;;;3.00;2.50;;;20.80;99.90;;;;;;5012085;28;20483;-66
2022/07/04 05:21:28;;;;;;;2.37;2.17;;;20.90;99.90;;;;;;5004740;28;20492;-66
2022/07/04 05:23:56;;;;;;;3.07;2.23;;;20.90;99.90;;;;;;4998092;28;20453;-66
2022/07/04 05:26:23;;;;;;;10.27;2.90;;;21.00;99.90;;;;;;4997875;28;20520;-66
2022/07/04 05:28:50;;;;;;;3.63;2.10;;;21.00;99.90;;;;;;4998716;28;20458;-66
2022/07/04 05:31:17;;;;;;;2.43;2.13;;;21.10;99.90;;;;;;4997816;28;20481;-66
2022/07/04 05:33:44;;;;;;;4.10;2.43;;;21.20;99.90;;;;;;4997684;28;20453;-66
2022/07/04 05:36:10;;;;;;;4.90;2.30;;;21.40;99.90;;;;;;4997873;28;20816;-65
2022/07/04 05:38:37;;;;;;;3.90;2.10;;;21.50;99.90;;;;;;4997530;28;20458;-66
2022/07/04 05:41:05;;;;;;;2.30;2.10;;;21.50;99.90;;;;;;4997432;28;20481;-66
2022/07/04 05:43:32;;;;;;;3.33;2.00;;;21.60;99.90;;;;;;4997413;28;20453;-66
2022/07/04 05:45:58;;;;;;;2.57;2.23;;;21.70;99.90;;;;;;4997262;28;20454;-66
2022/07/04 05:48:25;;;;;;;7.80;1.97;;;21.70;99.90;;;;;;4997222;28;20459;-66
2022/07/04 05:50:52;;;;;;;5.07;2.23;;;21.90;99.90;;;;;;4997158;28;20480;-65
2022/07/04 05:53:19;;;;;;;2.00;1.90;;;22.00;99.90;;;;;;4996659;28;20461;-66
2022/07/04 05:55:45;;;;;;;5.73;2.47;;;22.10;99.90;;;;;;4997353;28;20453;-66
2022/07/04 05:58:13;;;;;;;4.20;1.90;;;22.30;99.90;;;;;;4997081;28;20847;-66
2022/07/04 06:00:40;;;;;;;2.33;2.23;;;22.40;99.90;;;;;;4997350;28;20485;-66
2022/07/04 06:03:07;;;;;;;4.07;2.33;;;22.50;99.90;;;;;;4997340;28;20442;-66
2022/07/04 06:05:34;;;;;;;2.37;2.20;;;22.70;99.90;;;;;;4997582;28;20505;-66
2022/07/04 06:08:01;;;;;;;1.93;1.83;;;22.80;99.90;;;;;;5016007;28;20442;-66
2022/07/04 06:10:28;;;;;;;3.70;2.63;;;23.00;99.90;;;;;;5014397;28;20449;-66
2022/07/04 06:12:54;;;;;;;5.63;2.17;;;23.10;99.90;;;;;;4998552;28;20457;-66
2022/07/04 06:15:23;;;;;;;9.10;2.23;;;23.20;99.90;;;;;;5000318;28;20873;-66
2022/07/04 06:17:49;;;;;;;4.53;2.73;;;23.30;99.90;;;;;;5002806;28;20505;-65
2022/07/04 06:20:16;;;;;;;2.20;2.00;;;23.30;99.90;;;;;;5004319;28;20457;-65
2022/07/04 06:22:44;;;;;;;2.60;2.00;;;23.30;99.90;;;;;;5003664;28;20944;-65
2022/07/04 06:25:14;;;;;;;2.53;2.30;;;23.30;99.90;;;;;;5001620;28;20454;-66
2022/07/04 06:27:41;;;;;;;2.70;2.43;;;23.10;99.90;;;;;;4998719;28;20454;-65
2022/07/04 06:30:10;;;;;;;2.67;2.47;;;23.00;99.90;;;;;;5000020;28;20457;-67
2022/07/04 06:32:44;;;;;;;4.93;2.77;;;22.80;99.90;;;;;;5000332;28;20457;-66
2022/07/04 06:37:55;;;;;;;3.50;1.97;;;22.80;99.90;;;;;;5001977;28;20481;-66
2022/07/04 06:40:22;;;;;;;2.87;2.33;;;22.90;99.90;;;;;;5001475;28;20464;-66
2022/07/04 06:42:49;;;;;;;3.10;2.00;;;22.90;99.90;;;;;;5002148;28;20554;-66
2022/07/04 06:45:16;;;;;;;3.00;2.70;;;23.10;99.90;;;;;;5001089;28;20461;-67
2022/07/04 06:47:44;;;;;;;5.03;2.40;;;23.40;99.90;;;;;;4997413;28;20484;-66
2022/07/04 06:50:11;;;;;;;2.20;2.10;;;23.60;99.90;;;;;;4996638;28;20461;-65
2022/07/04 06:52:39;;;;;;;5.60;2.10;;;23.80;99.90;;;;;;4996642;28;20537;-66
2022/07/04 06:55:07;;;;;;;2.60;2.40;;;23.90;99.90;;;;;;4996272;28;20872;-67
2022/07/04 06:57:33;;;;;;;6.53;2.40;;;23.90;99.90;;;;;;4996373;28;20481;-66
2022/07/04 07:00:00;;;;;;;2.40;2.10;;;23.90;99.90;;;;;;4997046;28;20933;-65
2022/07/04 07:02:27;;;;;;;4.90;2.40;;;24.10;99.90;;;;;;4997525;28;20478;-66
2022/07/04 07:04:56;;;;;;;3.20;2.10;;;24.00;99.90;;;;;;4999286;28;20461;-65
2022/07/04 07:07:24;;;;;;;7.57;2.30;;;24.10;99.90;;;;;;4999716;28;20450;-65
2022/07/04 07:09:51;;;;;;;2.53;2.40;;;24.10;99.90;;;;;;4999132;28;20453;-66
2022/07/04 07:12:17;;;;;;;2.70;2.30;;;24.20;99.90;;;;;;4999161;28;20504;-65
2022/07/04 07:14:44;;;;;;;6.70;2.47;;;24.20;99.90;;;;;;4999048;28;20461;-66
2022/07/04 07:17:11;;;;;;;5.80;2.10;;;24.50;99.90;;;;;;4997301;28;20481;-66
2022/07/04 07:19:37;;;;;;;3.17;2.60;;;24.80;99.90;;;;;;4997118;28;20454;-66
2022/07/04 07:22:06;;;;;;;4.43;2.30;;;25.00;99.90;;;;;;4996540;28;20980;-66
2022/07/04 07:24:32;;;;;;;2.50;2.03;;;25.20;98.80;;;;;;4996819;28;20980;-66
2022/07/04 07:26:59;;;;;;;3.20;2.50;;;25.20;98.90;;;;;;4998570;28;20825;-66
2022/07/04 07:29:26;;;;;;;3.53;2.37;;;25.00;98.40;;;;;;4998956;28;20449;-66
2022/07/04 07:31:52;;;;;;;2.43;2.10;;;25.20;98.90;;;;;;4995935;28;20528;-66
2022/07/04 07:34:19;;;;;;;6.53;2.70;;;25.20;97.20;;;;;;4995879;28;20458;-66
2022/07/04 07:36:46;;;;;;;3.17;2.63;;;25.00;97.80;;;;;;4995222;28;20461;-67
2022/07/04 07:39:14;;;;;;;2.80;2.50;;;25.10;99.80;;;;;;4995560;28;20460;-66
2022/07/04 07:41:41;;;;;;;3.80;2.60;;;25.10;99.80;;;;;;4995353;28;20478;-66
2022/07/04 07:44:08;;;;;;;4.40;2.40;;;25.10;99.10;;;;;;4995273;28;20479;-67
2022/07/04 07:46:35;;;;;;;4.47;2.47;;;25.00;98.90;;;;;;4994927;28;20945;-66
2022/07/04 07:49:03;;;;;;;5.93;2.57;;;24.60;98.30;;;;;;4995221;28;20461;-66
2022/07/04 07:51:29;;;;;;;3.83;2.60;;;24.70;99.10;;;;;;4995174;28;20537;-66
2022/07/04 07:53:56;;;;;;;7.17;2.80;;;24.60;99.50;;;;;;4994849;28;20801;-66
2022/07/04 07:56:25;;;;;;;2.93;2.73;;;24.40;99.90;;;;;;4994998;28;20472;-66
2022/07/04 07:58:52;;;;;;;4.57;2.90;;;24.50;99.90;;;;;;4994813;28;20488;-66
2022/07/04 08:01:20;;;;;;;3.37;2.27;;;24.50;99.90;;;;;;4994615;28;20485;-66
2022/07/04 08:06:32;;;;;;;2.70;2.50;;;24.60;99.90;;;;;;4995934;28;20421;-66
2022/07/04 08:08:59;;;;;;;3.90;2.47;;;24.50;99.90;;;;;;4995653;28;20450;-66
2022/07/04 08:11:27;;;;;;;3.00;2.33;;;24.50;99.90;;;;;;4995402;28;20480;-66
2022/07/04 08:13:54;;;;;;;2.73;2.53;;;24.30;99.90;;;;;;4995561;28;20461;-66
2022/07/04 08:16:21;;;;;;;5.93;2.50;;;24.20;99.90;;;;;;4995198;28;20454;-66
2022/07/04 08:18:48;;;;;;;7.67;2.80;;;24.10;99.90;;;;;;4994557;28;20477;-66
2022/07/04 08:21:14;;;;;;;2.63;2.50;;;24.20;99.90;;;;;;4994372;28;20474;-66
2022/07/04 08:23:42;;;;;;;3.50;2.40;;;24.30;99.90;;;;;;4994635;28;20457;-66
2022/07/04 08:26:09;;;;;;;4.30;2.47;;;24.30;99.90;;;;;;4994626;28;20461;-66
2022/07/04 08:28:37;;;;;;;3.80;2.90;;;24.30;99.90;;;;;;4994854;28;20450;-66
2022/07/04 08:31:04;;;;;;;3.10;2.80;;;24.40;99.90;;;;;;4997360;28;20500;-66
2022/07/04 08:33:31;;;;;;;2.73;2.20;;;24.50;99.90;;;;;;4995686;28;20450;-66
2022/07/04 08:35:58;;;;;;;3.13;2.63;;;24.60;99.90;;;;;;4996326;28;20523;-65
2022/07/04 08:38:25;;;;;;;2.73;2.40;;;24.60;99.90;;;;;;4998510;28;20478;-65
2022/07/04 08:40:57;;;;;;;2.43;2.33;;;24.70;99.90;;;;;;4998698;28;20488;-65
2022/07/04 08:43:25;;;;;;;10.63;3.50;;;24.90;99.60;;;;;;4999018;28;20442;-66
2022/07/04 08:45:55;;;;;;;2.87;2.67;;;24.80;99.80;;;;;;4998333;28;20493;-67
2022/07/04 08:48:25;;;;;;;2.70;2.47;;;25.00;99.90;;;;;;4998349;28;20956;-67
2022/07/04 08:50:57;;;;;;;3.20;2.90;;;25.40;99.60;;;;;;4998078;28;20481;-66
2022/07/04 08:53:27;;;;;;;2.87;2.57;;;25.70;99.30;;;;;;4997766;28;20913;-67
2022/07/04 08:58:40;;;;;;;2.70;2.30;;;25.80;97.70;;;;;;4998710;28;20461;-66
2022/07/04 09:01:14;;;;;;;2.53;2.27;;;25.80;97.80;;;;;;4998505;28;20561;-66
2022/07/04 09:03:42;;;;;;;4.40;2.47;;;26.00;98.40;;;;;;4998258;28;20452;-66
2022/07/04 09:06:09;;;;;;;2.70;2.50;;;26.30;97.80;;;;;;4998133;28;20520;-66
2022/07/04 09:08:36;;;;;;;3.50;2.20;;;26.70;97.00;;;;;;4997776;28;20933;-66
2022/07/04 09:11:03;;;;;;;4.43;2.60;;;27.00;96.20;;;;;;4997831;28;20484;-65
2022/07/04 09:13:31;;;;;;;3.83;2.60;;;26.90;95.30;;;;;;4997607;28;20960;-65
2022/07/04 09:15:59;;;;;;;2.30;2.10;;;27.20;95.80;;;;;;4997836;28;20453;-66
2022/07/04 09:18:28;;;;;;;2.23;2.13;;;27.80;95.00;;;;;;4998173;28;20484;-65
2022/07/04 09:20:57;;;;;;;3.43;2.40;;;28.60;91.90;;;;;;4997720;28;20473;-66
2022/07/04 09:23:25;;;;;;;2.40;2.20;;;28.90;91.30;;;;;;4997823;28;20827;-65
2022/07/04 09:26:09;;;;;;;2.63;2.30;;;29.10;89.20;;;;;;4997715;28;20453;-66
2022/07/04 09:28:36;;;;;;;3.40;2.53;;;29.10;88.60;;;;;;4998085;28;20493;-66
2022/07/04 09:31:03;;;;;;;2.53;2.30;;;28.80;89.90;;;;;;4997509;28;20481;-67
2022/07/04 09:33:54;;;;;;;5.40;2.67;;;29.10;90.00;;;;;;4997081;28;20823;-66
2022/07/04 09:36:23;;;;;;;2.53;2.33;;;29.70;89.30;;;;;;4992806;28;20450;-67
2022/07/04 09:39:12;;;;;;;3.57;2.73;;;29.80;84.90;;;;;;4997600;28;20473;-66
2022/07/04 09:41:56;;;;;;;3.10;2.53;;;29.70;84.40;;;;;;4997657;28;20504;-67
2022/07/04 09:44:24;;;;;;;3.43;2.63;;;30.00;82.70;;;;;;4997138;28;20457;-67
2022/07/04 09:46:51;;;;;;;2.57;2.00;;;30.50;83.80;;;;;;4996863;28;20460;-66
2022/07/04 09:49:19;;;;;;;3.97;2.43;;;31.40;78.00;;;;;;4997455;28;20518;-65
2022/07/04 09:51:47;;;;;;;2.63;2.43;;;31.90;77.20;;;;;;4996981;28;20474;-67
2022/07/04 09:54:25;;;;;;;2.93;2.27;;;32.20;70.90;;;;;;4997236;28;20482;-66
2022/07/04 09:56:54;;;;;;;3.40;2.73;;;32.50;72.40;;;;;;4997154;28;20450;-67
2022/07/04 09:59:22;;;;;;;3.47;2.37;;;32.30;67.50;;;;;;4996837;28;20481;-66
2022/07/04 10:01:49;;;;;;;2.20;2.10;;;32.00;68.30;;;;;;4996603;28;20517;-67
2022/07/04 10:04:15;;;;;;;4.77;2.40;;;31.70;70.70;;;;;;4996642;28;21007;-66
2022/07/04 10:06:45;;;;;;;2.77;2.57;;;31.40;72.90;;;;;;4997015;28;20457;-66
2022/07/04 10:09:14;;;;;;;2.97;2.33;;;31.30;71.20;;;;;;4997121;28;20450;-67
2022/07/04 10:11:42;;;;;;;2.43;2.23;;;31.20;69.90;;;;;;4996876;28;20528;-66
2022/07/04 10:14:10;;;;;;;3.97;2.07;;;31.10;75.10;;;;;;4996819;28;20823;-66
2022/07/04 10:16:39;;;;;;;3.80;1.77;;;31.10;74.50;;;;;;4996262;28;20814;-67
2022/07/04 10:19:06;;;;;;;2.07;1.80;;;31.60;69.00;;;;;;4997045;28;20509;-66
2022/07/04 10:21:34;;;;;;;2.23;2.03;;;32.30;68.70;;;;;;4996723;28;20473;-66
2022/07/04 10:24:03;;;;;;;4.73;2.10;;;32.90;65.60;;;;;;4996205;28;20468;-66
2022/07/04 10:26:31;;;;;;;2.23;2.00;;;33.10;64.20;;;;;;4997199;28;20488;-66
2022/07/04 10:28:58;;;;;;;3.07;2.03;;;33.50;65.30;;;;;;4996655;28;20454;-68
2022/07/04 10:31:28;;;;;;;5.13;2.50;;;33.30;61.00;;;;;;4996568;28;20912;-67
2022/07/04 10:33:57;;;;;;;3.37;1.60;;;33.60;63.80;;;;;;4996634;28;20529;-67
2022/07/04 10:36:27;;;;;;;1.90;1.80;;;34.00;59.80;;;;;;4996559;28;20453;-68
2022/07/04 10:38:55;;;;;;;1.70;1.60;;;34.20;58.50;;;;;;4996434;28;20516;-68
2022/07/04 10:41:24;;;;;;;1.67;1.57;;;34.70;61.70;;;;;;4996824;28;20481;-67
2022/07/04 10:43:58;;;;;;;3.03;2.07;;;35.30;57.90;;;;;;4996798;28;20457;-67
2022/07/04 10:46:33;;;;;;;2.90;1.80;;;35.60;55.40;;;;;;4997304;28;20469;-67
2022/07/04 10:49:01;;;;;;;2.70;2.40;;;35.80;56.10;;;;;;4997851;28;20433;-67
2022/07/04 10:51:39;;;;;;;2.33;1.70;;;34.90;55.30;;;;;;4996666;28;20469;-68
2022/07/04 10:54:09;;;;;;;7.23;1.83;;;35.20;54.60;;;;;;4996618;28;20480;-66
2022/07/04 10:56:40;;;;;;;2.80;1.73;;;35.30;53.90;;;;;;4998579;28;20453;-66
2022/07/04 10:59:11;;;;;;;1.97;1.80;;;35.00;55.90;;;;;;4997831;28;20472;-67
2022/07/04 11:01:38;;;;;;;3.47;1.73;;;35.00;52.90;;;;;;4996783;28;20480;-67
2022/07/04 11:04:05;;;;;;;4.83;1.70;;;34.80;55.40;;;;;;4996631;28;20815;-66
2022/07/04 11:06:52;;;;;;;2.23;1.47;;;34.70;55.20;;;;;;4996536;28;20515;-67
2022/07/04 11:09:20;;;;;;;2.13;1.50;;;34.60;54.10;;;;;;4996005;28;20503;-66
2022/07/04 11:11:55;;;;;;;2.07;1.87;;;34.70;52.20;;;;;;4995853;28;20479;-67
2022/07/04 11:14:42;;;;;;;1.60;1.50;;;34.70;53.60;;;;;;4995449;28;20438;-67
2022/07/04 11:17:10;;;;;;;2.37;2.10;;;34.50;55.70;;;;;;4995318;28;20464;-68
2022/07/04 11:19:38;;;;;;;3.60;1.73;;;34.70;54.30;;;;;;4995629;28;20477;-67
2022/07/04 11:22:06;;;;;;;2.10;1.47;;;34.60;52.30;;;;;;4995789;28;20528;-67
2022/07/04 11:24:33;;;;;;;1.80;1.50;;;34.30;54.70;;;;;;4995174;28;20561;-66
2022/07/04 11:27:02;;;;;;;4.67;1.77;;;34.40;53.20;;;;;;4995333;28;20457;-67
2022/07/04 11:29:30;;;;;;;1.80;1.70;;;33.60;54.80;;;;;;4995462;28;20449;-66
2022/07/04 11:31:57;;;;;;;1.63;1.53;;;33.20;59.90;;;;;;4995146;28;20999;-66
2022/07/04 11:34:24;;;;;;;2.67;1.77;;;32.90;55.60;;;;;;4996088;28;20460;-67
2022/07/04 11:36:53;;;;;;;1.97;1.87;;;32.80;55.80;;;;;;4995922;28;20453;-66
2022/07/04 11:39:21;;;;;;;1.53;1.43;;;32.20;55.90;;;;;;4995076;28;20562;-67
2022/07/04 11:47:23;;;;;;;1.87;1.77;;;31.80;58.50;;;;;;4995385;28;20795;-66
2022/07/04 11:49:51;;;;;;;2.80;2.53;;;31.50;58.40;;;;;;4995064;28;20450;-67
2022/07/04 11:52:20;;;;;;;2.60;2.00;;;31.10;57.60;;;;;;4994996;28;20489;-67
2022/07/04 11:54:48;;;;;;;2.07;1.87;;;31.20;60.00;;;;;;4994969;28;20449;-67
2022/07/04 11:57:18;;;;;;;1.93;1.77;;;31.00;59.20;;;;;;4994567;28;20958;-65
2022/07/04 11:59:57;;;;;;;3.23;1.47;;;31.10;58.90;;;;;;4994930;28;20488;-66
2022/07/04 12:02:24;;;;;;;3.60;1.90;;;31.30;62.00;;;;;;4994441;28;20489;-66
2022/07/04 12:04:51;;;;;;;2.00;1.60;;;31.40;63.80;;;;;;4994673;28;20580;-67
2022/07/04 12:07:20;;;;;;;1.90;1.80;;;31.60;61.60;;;;;;4994853;28;20454;-66
2022/07/04 12:09:48;;;;;;;3.30;1.50;;;31.50;57.50;;;;;;4995398;28;20516;-66
2022/07/04 12:12:17;;;;;;;2.77;1.30;;;31.50;60.70;;;;;;4994614;28;20485;-67
2022/07/04 12:15:02;;;;;;;3.70;1.53;;;31.50;61.90;;;;;;4994783;28;20512;-66
2022/07/04 12:17:32;;;;;;;3.53;1.83;;;31.60;61.40;;;;;;4994642;28;20923;-67
2022/07/04 12:20:01;;;;;;;1.50;1.40;;;31.70;58.50;;;;;;4994352;28;21013;-66
2022/07/04 12:22:32;;;;;;;1.60;1.50;;;31.70;61.90;;;;;;4994574;28;20470;-66
2022/07/04 12:25:00;;;;;;;2.00;1.80;;;31.70;59.70;;;;;;4994967;28;20448;-66
2022/07/04 12:27:28;;;;;;;3.97;2.53;;;31.40;59.70;;;;;;4997276;28;20827;-66
2022/07/04 12:29:56;;;;;;;3.60;1.83;;;31.20;64.40;;;;;;4996684;28;20967;-66
2022/07/04 12:32:24;;;;;;;2.90;1.70;;;31.30;62.00;;;;;;4998478;28;20478;-65
2022/07/04 12:34:51;;;;;;;1.80;1.70;;;31.20;61.30;;;;;;4999497;28;20454;-66
2022/07/04 12:37:18;;;;;;;3.07;2.17;;;31.20;63.80;;;;;;4998641;28;20493;-66
2022/07/04 12:39:46;;;;;;;3.07;1.70;;;31.40;66.20;;;;;;4995434;28;20477;-67
2022/07/04 12:42:14;;;;;;;2.23;2.07;;;31.50;62.60;;;;;;4995057;28;20484;-66
2022/07/04 12:44:43;;;;;;;2.03;1.90;;;31.50;64.00;;;;;;4994696;28;20465;-67
2022/07/04 12:47:11;;;;;;;5.77;1.70;;;31.50;61.30;;;;;;4994334;28;20458;-66
2022/07/04 12:49:44;;;;;;;2.50;2.10;;;31.10;61.30;;;;;;4994857;28;20453;-66
2022/07/04 12:52:14;;;;;;;2.90;2.37;;;30.80;61.90;;;;;;4994317;28;20532;-66
2022/07/04 12:54:41;;;;;;;5.27;2.10;;;30.80;62.30;;;;;;4993894;28;20825;-66
2022/07/04 12:57:11;;;;;;;2.10;2.00;;;31.00;64.60;;;;;;4994284;28;20454;-66
2022/07/04 12:59:39;;;;;;;2.20;2.00;;;31.00;65.40;;;;;;4994113;28;20548;-67
2022/07/04 13:02:06;;;;;;;2.60;1.50;;;31.10;64.30;;;;;;4993851;28;20489;-66
2022/07/04 13:04:34;;;;;;;5.10;1.63;;;31.20;67.00;;;;;;4994417;28;20461;-67
2022/07/04 13:07:14;;;;;;;2.33;1.80;;;31.20;61.50;;;;;;4993883;28;20937;-67
2022/07/04 13:09:41;;;;;;;2.07;1.87;;;31.20;61.20;;;;;;4994207;28;20441;-66
2022/07/04 13:12:27;;;;;;;2.20;2.00;;;31.20;61.80;;;;;;4994046;28;20533;-66
2022/07/04 13:14:55;;;;;;;4.83;2.00;;;31.20;65.00;;;;;;4993944;28;20501;-66
2022/07/04 13:17:23;;;;;;;12.90;2.07;;;31.10;65.90;;;;;;4994095;28;20454;-67
2022/07/04 13:19:52;;;;;;;2.10;1.70;;;31.00;65.10;;;;;;4994769;28;20512;-67
2022/07/04 13:22:20;;;;;;;4.43;1.90;;;31.00;65.80;;;;;;4994577;28;20531;-68
2022/07/04 13:24:47;;;;;;;2.00;1.80;;;31.00;64.50;;;;;;4997727;28;20798;-66
2022/07/04 13:27:14;;;;;;;2.60;2.00;;;31.00;65.00;;;;;;4997780;28;20458;-66
2022/07/04 13:29:41;;;;;;;2.20;1.83;;;31.00;65.20;;;;;;4997792;28;20457;-66
2022/07/04 13:32:08;;;;;;;2.77;1.83;;;30.90;64.00;;;;;;4997738;28;20474;-66
2022/07/04 13:34:36;;;;;;;3.43;1.90;;;30.60;63.60;;;;;;4997566;28;20826;-66
2022/07/04 13:37:03;;;;;;;9.23;2.30;;;30.50;67.60;;;;;;4997675;28;20454;-65
2022/07/04 13:39:31;;;;;;;2.93;2.13;;;30.30;66.10;;;;;;4997711;28;20477;-66
2022/07/04 13:41:58;;;;;;;2.20;1.97;;;30.20;66.10;;;;;;4997676;28;20478;-66
2022/07/04 13:44:24;;;;;;;2.00;1.77;;;30.30;65.80;;;;;;4997708;28;20511;-66
2022/07/04 13:46:51;;;;;;;2.63;2.00;;;30.30;67.20;;;;;;4997336;28;20460;-66
2022/07/04 13:49:18;;;;;;;2.30;1.90;;;30.30;66.10;;;;;;4997369;28;20446;-66
2022/07/04 13:51:45;;;;;;;1.80;1.70;;;30.20;66.30;;;;;;4997258;28;20874;-66
2022/07/04 13:54:12;;;;;;;2.27;2.07;;;30.40;67.10;;;;;;4997387;28;20465;-66
2022/07/04 13:56:40;;;;;;;4.77;1.77;;;30.50;66.80;;;;;;4997403;28;20457;-66
2022/07/04 13:59:07;;;;;;;2.63;2.10;;;30.70;66.30;;;;;;4997659;28;20548;-66
2022/07/04 14:01:34;;;;;;;2.33;1.80;;;31.00;66.90;;;;;;4996977;28;20485;-66
2022/07/04 14:04:01;;;;;;;3.40;2.23;;;31.10;64.50;;;;;;4997085;28;20943;-66
2022/07/04 14:06:27;;;;;;;3.63;2.17;;;31.10;63.40;;;;;;4998126;28;20461;-67
2022/07/04 14:08:54;;;;;;;4.43;1.90;;;31.00;65.50;;;;;;5005684;28;20451;-67
2022/07/04 14:11:21;;;;;;;2.40;2.00;;;31.00;65.80;;;;;;5005404;28;20469;-66
2022/07/04 14:13:50;;;;;;;3.80;2.20;;;30.70;64.60;;;;;;5006982;28;20454;-66
2022/07/04 14:16:17;;;;;;;4.33;1.63;;;30.80;67.20;;;;;;5006063;28;20469;-66
2022/07/04 14:18:43;;;;;;;4.80;2.03;;;31.10;66.90;;;;;;5004202;28;20464;-67
2022/07/04 14:21:10;;;;;;;2.47;1.80;;;30.90;64.90;;;;;;4997054;28;20481;-66
2022/07/04 14:23:44;;;;;;;2.07;1.97;;;30.80;64.10;;;;;;4996938;28;20557;-66
2022/07/04 14:26:13;;;;;;;5.63;2.07;;;30.60;64.90;;;;;;4998253;28;20492;-66
2022/07/04 14:28:41;;;;;;;2.33;1.67;;;30.60;65.60;;;;;;5002298;28;20544;-66
2022/07/04 14:31:09;;;;;;;5.70;2.77;;;30.40;64.80;;;;;;5002118;28;20480;-66
2022/07/04 14:33:36;;;;;;;2.20;2.00;;;30.20;64.10;;;;;;5000648;28;20457;-66
2022/07/04 14:36:03;;;;;;;1.67;1.60;;;30.10;64.20;;;;;;4997418;28;20457;-67
2022/07/04 14:38:30;;;;;;;2.47;2.07;;;29.90;64.50;;;;;;4996402;28;20464;-66
2022/07/04 14:41:09;;;;;;;2.83;2.17;;;29.80;66.50;;;;;;4996284;28;20482;-66
2022/07/04 14:43:37;;;;;;;1.70;1.60;;;29.70;65.40;;;;;;4996454;28;20442;-66
2022/07/04 14:46:03;;;;;;;5.43;2.27;;;29.50;65.90;;;;;;4996597;28;20481;-67
2022/07/04 14:48:31;;;;;;;4.27;2.13;;;29.30;67.30;;;;;;4997410;28;20461;-67
2022/07/04 14:50:58;;;;;;;2.70;2.30;;;29.30;66.70;;;;;;4996962;28;20477;-66
2022/07/04 14:53:25;;;;;;;3.17;1.87;;;29.40;70.00;;;;;;4996554;28;20484;-67
2022/07/04 14:55:52;;;;;;;4.53;2.20;;;29.60;71.50;;;;;;4996194;28;20818;-66
2022/07/04 14:58:19;;;;;;;4.57;2.10;;;29.70;69.70;;;;;;4996273;28;20454;-66
2022/07/04 15:00:46;;;;;;;2.37;2.00;;;30.00;67.70;;;;;;4996216;28;20513;-66
2022/07/04 15:03:13;;;;;;;3.40;2.50;;;30.10;68.20;;;;;;4996783;28;20799;-66
2022/07/04 15:05:41;;;;;;;3.30;2.70;;;30.20;69.70;;;;;;4997351;28;20481;-66
2022/07/04 15:08:08;;;;;;;3.90;2.20;;;30.30;70.20;;;;;;4996743;28;20465;-66
2022/07/04 15:10:35;;;;;;;2.83;2.53;;;30.20;66.90;;;;;;4996116;28;20474;-67
2022/07/04 15:13:02;;;;;;;3.00;2.10;;;30.10;66.10;;;;;;4996453;28;20478;-67
2022/07/04 15:15:29;;;;;;;3.03;1.70;;;30.10;69.40;;;;;;4996200;28;20967;-63
2022/07/04 15:17:55;;;;;;;2.70;1.90;;;30.20;67.80;;;;;;4996986;28;20453;-63
2022/07/04 15:25:51;;;;;;;3.50;2.10;;;30.10;64.60;;;;;;4996469;28;20421;-63
2022/07/04 15:28:18;;;;;;;2.80;2.10;;;30.10;64.40;;;;;;4995838;28;20465;-63
2022/07/04 15:30:45;;;;;;;2.20;2.00;;;29.90;63.80;;;;;;4995973;28;20877;-63
2022/07/04 15:33:14;;;;;;;2.07;1.87;;;29.60;64.20;;;;;;4995775;28;20454;-64
2022/07/04 15:35:41;;;;;;;1.80;1.70;;;29.70;64.80;;;;;;4995943;28;20450;-64
2022/07/04 15:38:10;;;;;;;1.80;1.57;;;29.70;65.90;;;;;;4996256;28;20496;-63
2022/07/04 15:40:37;;;;;;;3.60;2.00;;;29.80;65.00;;;;;;4995370;28;20481;-64
2022/07/04 15:43:03;;;;;;;1.70;1.60;;;29.80;63.90;;;;;;4995647;28;20487;-63
2022/07/04 15:45:30;;;;;;;2.03;1.93;;;29.80;62.70;;;;;;4997294;28;20489;-63
2022/07/04 15:47:57;;;;;;;1.70;1.60;;;29.90;63.30;;;;;;4995461;28;20453;-63
2022/07/04 15:50:24;;;;;;;1.57;1.43;;;29.90;60.00;;;;;;4995264;28;20450;-64
2022/07/04 15:52:51;;;;;;;1.83;1.73;;;29.90;60.40;;;;;;4994970;28;20457;-63
2022/07/04 15:55:19;;;;;;;5.80;1.60;;;29.80;60.60;;;;;;4996044;28;20996;-63
2022/07/04 15:57:46;;;;;;;2.10;1.40;;;29.90;59.00;;;;;;4994930;28;20457;-63
2022/07/04 16:00:13;;;;;;;2.00;1.30;;;29.90;59.90;;;;;;4994633;28;20484;-63
2022/07/04 16:02:40;;;;;;;1.43;1.43;;;29.80;59.50;;;;;;4995482;28;20457;-64
2022/07/04 16:05:08;;;;;;;1.80;1.40;;;29.90;58.30;;;;;;4994873;28;20460;-64
2022/07/04 16:07:35;;;;;;;2.57;2.07;;;30.00;59.50;;;;;;4994855;28;20915;-63
2022/07/04 16:10:02;;;;;;;1.80;1.70;;;30.00;59.30;;;;;;4994459;28;20925;-64
2022/07/04 16:12:31;;;;;;;1.93;1.30;;;30.00;57.60;;;;;;4994755;28;20485;-64
2022/07/04 16:14:58;;;;;;;4.53;1.30;;;30.10;56.60;;;;;;4995021;28;20579;-63
2022/07/04 16:17:25;;;;;;;1.50;1.40;;;30.00;56.70;;;;;;4994651;28;20464;-63
2022/07/04 16:19:52;;;;;;;2.67;1.20;;;29.80;56.70;;;;;;4994608;28;20477;-63
2022/07/04 16:22:18;;;;;;;1.37;1.30;;;29.60;57.20;;;;;;4994555;28;20503;-63
2022/07/04 16:24:45;;;;;;;1.57;1.50;;;29.50;57.50;;;;;;4994287;28;20461;-63
2022/07/04 16:27:12;;;;;;;1.90;1.50;;;29.30;57.90;;;;;;4994737;28;20817;-63
2022/07/04 16:29:40;;;;;;;1.63;1.40;;;29.20;58.20;;;;;;4995147;28;20941;-64
2022/07/04 16:32:07;;;;;;;1.50;1.40;;;29.00;57.90;;;;;;4995068;28;20835;-63
2022/07/04 16:34:34;;;;;;;1.37;1.37;;;28.80;58.10;;;;;;4995364;28;20453;-64
2022/07/04 16:37:00;;;;;;;1.43;1.33;;;28.80;57.00;;;;;;4995201;28;20484;-63
2022/07/04 16:39:27;;;;;;;1.70;1.60;;;28.90;57.20;;;;;;4994790;28;20458;-63
2022/07/04 16:41:54;;;;;;;2.90;1.50;;;28.90;57.50;;;;;;4996372;28;20544;-63
2022/07/04 16:44:21;;;;;;;1.50;1.40;;;29.00;55.90;;;;;;4999108;28;20454;-64
2022/07/04 16:46:49;;;;;;;1.50;1.40;;;29.10;56.30;;;;;;5003252;28;20450;-64
2022/07/04 16:49:16;;;;;;;1.60;1.00;;;29.10;56.00;;;;;;5004068;28;20461;-65
2022/07/04 16:51:43;;;;;;;1.20;1.10;;;29.10;57.00;;;;;;4995684;28;20830;-64
2022/07/04 16:54:10;;;;;;;1.30;1.20;;;29.00;55.80;;;;;;4994959;28;20830;-63
2022/07/04 16:56:36;;;;;;;1.97;1.23;;;28.90;56.50;;;;;;4994967;28;20460;-64
2022/07/04 16:59:03;;;;;;;1.40;1.30;;;28.80;56.90;;;;;;4998417;28;20461;-64
2022/07/04 17:01:30;;;;;;;2.20;1.73;;;28.50;57.10;;;;;;4998141;28;20481;-63
2022/07/04 17:03:58;;;;;;;1.53;1.30;;;28.40;57.40;;;;;;4998585;28;20458;-64
2022/07/04 17:06:25;;;;;;;1.60;1.47;;;28.20;57.00;;;;;;4999316;28;20824;-63
2022/07/04 17:08:52;;;;;;;1.40;1.30;;;28.10;57.50;;;;;;4999948;28;20862;-64